Time;durP1;ratioP1;P1;durP2;ratioP2;P2;SDS_P1;SDS_P2;PMS_P1;PMS_P2;Temp;Humidity;BMP_temperature;BMP_pressure;BME280_temperature;BME280_humidity;BME280_pressure;Samples;Min_cycle;Max_cycle;Signal;HPM_P1;HPM_P2
2023/12/14 00:00:53;;;;;;;3.80;2.97;;;4.30;99.90;;;;;;4941907;28;20678;-68
2023/12/14 00:03:20;;;;;;;5.20;3.30;;;4.40;99.90;;;;;;4957779;28;20207;-68
2023/12/14 00:05:48;;;;;;;6.60;3.53;;;4.40;99.90;;;;;;4949421;28;20196;-68
2023/12/14 00:08:15;;;;;;;3.90;3.00;;;4.40;99.90;;;;;;4963273;28;20232;-68
2023/12/14 00:10:42;;;;;;;8.57;3.30;;;5.90;99.90;;;;;;4938519;28;20222;-68
2023/12/14 00:13:09;;;;;;;4.40;3.10;;;4.40;99.90;;;;;;4939576;28;20597;-68
2023/12/14 00:15:36;;;;;;;3.70;2.80;;;4.50;99.90;;;;;;4953936;28;20230;-68
2023/12/14 00:18:03;;;;;;;3.93;2.90;;;4.50;99.90;;;;;;4942633;28;20501;-68
2023/12/14 00:20:30;;;;;;;4.13;3.53;;;4.50;99.90;;;;;;4944160;28;20226;-68
2023/12/14 00:22:58;;;;;;;4.80;2.90;;;4.50;99.90;;;;;;4949957;28;20834;-68
2023/12/14 00:25:25;;;;;;;4.43;3.37;;;4.50;99.90;;;;;;4958711;28;20326;-68
2023/12/14 00:27:52;;;;;;;5.10;3.30;;;4.50;99.90;;;;;;4918247;28;20207;-68
2023/12/14 00:30:19;;;;;;;6.97;3.27;;;4.50;99.90;;;;;;4950392;28;20562;-68
2023/12/14 00:32:45;;;;;;;9.83;3.63;;;4.50;99.90;;;;;;4947768;28;20782;-68
2023/12/14 00:35:12;;;;;;;6.27;3.17;;;4.40;99.90;;;;;;4943931;28;20966;-68
2023/12/14 00:37:39;;;;;;;8.03;3.60;;;4.50;99.90;;;;;;4958300;28;21386;-68
2023/12/14 00:40:09;;;;;;;6.13;3.17;;;4.50;99.90;;;;;;4953734;28;20223;-68
2023/12/14 00:42:36;;;;;;;6.23;3.17;;;;;;;;;;4950381;28;20217;-67
2023/12/14 00:45:03;;;;;;;6.13;2.60;;;4.40;99.90;;;;;;4921480;28;20497;-68
2023/12/14 00:47:30;;;;;;;5.30;3.23;;;4.40;99.90;;;;;;4958166;28;20227;-68
2023/12/14 00:49:56;;;;;;;5.10;3.20;;;4.40;99.90;;;;;;4929940;28;21288;-68
2023/12/14 00:52:23;;;;;;;3.73;2.77;;;4.40;99.90;;;;;;4950419;28;20681;-68
2023/12/14 00:54:50;;;;;;;6.97;3.03;;;4.40;99.90;;;;;;4951119;28;20206;-67
2023/12/14 00:57:18;;;;;;;6.90;3.10;;;3.70;99.90;;;;;;4951571;28;20200;-68
2023/12/14 00:59:45;;;;;;;3.50;2.67;;;4.40;99.90;;;;;;4918168;28;20208;-68
2023/12/14 01:02:12;;;;;;;4.23;2.80;;;4.40;99.90;;;;;;4947303;28;20210;-68
2023/12/14 01:04:39;;;;;;;6.27;2.57;;;4.30;99.90;;;;;;4933498;28;20350;-68
2023/12/14 01:07:06;;;;;;;5.37;2.73;;;4.30;99.90;;;;;;4944925;28;20286;-68
2023/12/14 01:09:33;;;;;;;3.93;2.40;;;4.20;99.90;;;;;;4946116;28;20217;-68
2023/12/14 01:12:00;;;;;;;4.17;2.60;;;4.30;99.90;;;;;;4963011;28;20241;-68
2023/12/14 01:14:28;;;;;;;4.93;2.70;;;4.30;99.90;;;;;;4916379;28;20207;-68
2023/12/14 01:16:55;;;;;;;6.27;3.40;;;4.30;99.90;;;;;;4948434;28;20730;-68
2023/12/14 01:19:21;;;;;;;5.40;2.93;;;4.30;99.90;;;;;;4951284;28;20691;-68
2023/12/14 01:21:47;;;;;;;5.10;2.43;;;4.30;99.90;;;;;;4939182;28;20205;-68
2023/12/14 01:24:14;;;;;;;5.83;2.77;;;4.20;99.90;;;;;;4940505;28;20887;-68
2023/12/14 01:26:41;;;;;;;3.57;2.60;;;4.20;99.90;;;;;;4955733;28;20196;-68
2023/12/14 01:29:08;;;;;;;7.43;3.43;;;4.30;99.90;;;;;;4915974;28;20785;-68
2023/12/14 01:31:36;;;;;;;8.17;3.00;;;4.30;99.90;;;;;;4956036;28;20203;-68
2023/12/14 01:34:03;;;;;;;4.03;2.47;;;4.30;99.90;;;;;;4951386;28;20402;-68
2023/12/14 01:36:30;;;;;;;5.07;2.67;;;4.30;99.90;;;;;;4949978;28;20234;-68
2023/12/14 01:38:57;;;;;;;8.37;2.67;;;4.40;99.90;;;;;;4930818;28;20208;-68
2023/12/14 01:41:24;;;;;;;6.23;2.60;;;4.30;99.90;;;;;;4961340;28;20202;-68
2023/12/14 01:43:51;;;;;;;3.87;3.03;;;4.30;99.90;;;;;;4952672;28;20197;-68
2023/12/14 01:46:18;;;;;;;5.43;2.67;;;4.40;99.90;;;;;;4918391;28;20238;-68
2023/12/14 01:48:46;;;;;;;8.60;3.23;;;4.40;99.90;;;;;;4952326;28;20226;-67
2023/12/14 01:51:13;;;;;;;3.87;2.63;;;4.40;99.90;;;;;;4944424;28;20599;-68
2023/12/14 01:53:40;;;;;;;5.37;3.27;;;4.30;99.90;;;;;;4942863;28;20204;-68
2023/12/14 01:56:08;;;;;;;5.07;2.73;;;4.40;99.90;;;;;;4939731;28;20229;-68
2023/12/14 01:58:35;;;;;;;4.43;3.00;;;4.30;99.90;;;;;;4953604;28;20195;-68
2023/12/14 02:01:09;;;;;;;3.83;2.93;;;4.60;99.90;;;;;;4914960;28;20681;-68
2023/12/14 02:03:36;;;;;;;5.23;3.10;;;4.40;99.90;;;;;;4939747;28;20224;-68
2023/12/14 02:06:04;;;;;;;8.43;3.47;;;4.40;99.90;;;;;;4947137;28;20499;-68
2023/12/14 02:08:31;;;;;;;5.90;3.03;;;4.40;99.90;;;;;;4944348;28;20853;-68
2023/12/14 02:10:58;;;;;;;5.80;3.40;;;4.40;99.90;;;;;;4951076;28;20681;-67
2023/12/14 02:13:25;;;;;;;5.70;3.37;;;;;;;;;;4952922;28;20569;-68
2023/12/14 02:15:53;;;;;;;4.80;3.40;;;4.20;99.90;;;;;;4924458;28;20230;-68
2023/12/14 02:18:20;;;;;;;7.40;3.70;;;4.40;99.90;;;;;;4951726;28;20204;-67
2023/12/14 02:20:47;;;;;;;6.30;3.70;;;4.40;99.90;;;;;;4958008;28;20840;-68
2023/12/14 02:23:15;;;;;;;8.40;3.53;;;4.40;99.90;;;;;;4934346;28;20815;-68
2023/12/14 02:25:42;;;;;;;6.60;3.63;;;4.40;99.90;;;;;;4956210;28;20749;-68
2023/12/14 02:28:09;;;;;;;7.27;3.70;;;4.40;99.90;;;;;;4952509;28;20513;-68
2023/12/14 02:30:36;;;;;;;5.67;3.80;;;4.40;99.90;;;;;;4955407;28;20502;-68
2023/12/14 02:33:03;;;;;;;8.33;4.00;;;4.50;99.90;;;;;;4913096;28;20506;-68
2023/12/14 02:35:30;;;;;;;7.30;3.93;;;4.50;99.90;;;;;;4956064;28;20298;-68
2023/12/14 02:37:56;;;;;;;6.30;3.97;;;4.40;99.90;;;;;;4948643;28;20537;-68
2023/12/14 02:40:25;;;;;;;5.40;3.50;;;4.50;99.90;;;;;;4962539;28;20774;-68
2023/12/14 02:42:52;;;;;;;6.37;3.87;;;4.40;99.90;;;;;;4949401;28;20196;-67
2023/12/14 02:45:19;;;;;;;8.47;3.53;;;4.70;99.90;;;;;;4957998;28;20196;-68
2023/12/14 02:47:47;;;;;;;5.33;3.73;;;;;;;;;;4941065;28;20214;-68
2023/12/14 02:50:14;;;;;;;6.27;3.83;;;4.50;99.90;;;;;;4938471;28;20500;-68
2023/12/14 02:52:41;;;;;;;6.83;3.90;;;4.50;99.90;;;;;;4959643;28;20671;-67
2023/12/14 02:55:08;;;;;;;4.60;3.87;;;4.40;99.90;;;;;;4946155;28;20208;-68
2023/12/14 02:57:36;;;;;;;7.07;3.93;;;4.40;99.90;;;;;;4957690;28;20233;-68
2023/12/14 03:00:04;;;;;;;5.07;3.20;;;5.10;99.90;;;;;;4954490;28;20836;-68
2023/12/14 03:02:31;;;;;;;6.13;3.70;;;4.40;99.90;;;;;;4955008;28;20197;-68
2023/12/14 03:04:57;;;;;;;5.90;3.67;;;4.40;99.90;;;;;;4905293;28;20234;-67
2023/12/14 03:07:24;;;;;;;5.33;3.83;;;4.40;99.90;;;;;;4948309;28;20206;-68
2023/12/14 03:09:51;;;;;;;7.90;4.10;;;4.40;99.90;;;;;;4946727;28;20208;-67
2023/12/14 03:12:18;;;;;;;5.00;3.40;;;4.40;99.90;;;;;;4952299;28;20207;-68
2023/12/14 03:14:46;;;;;;;6.80;3.83;;;4.40;99.90;;;;;;4956188;28;20610;-68
2023/12/14 03:17:13;;;;;;;7.13;3.20;;;4.40;99.90;;;;;;4953602;28;20436;-68
2023/12/14 03:19:41;;;;;;;6.83;3.77;;;5.70;99.90;;;;;;4917950;28;20207;-68
2023/12/14 03:22:08;;;;;;;7.97;4.20;;;4.40;99.90;;;;;;4962139;28;20688;-67
2023/12/14 03:24:36;;;;;;;5.17;2.97;;;4.40;99.90;;;;;;4955477;28;20394;-68
2023/12/14 03:27:04;;;;;;;6.37;3.17;;;4.40;99.90;;;;;;4951020;28;20203;-67
2023/12/14 03:29:30;;;;;;;6.27;3.63;;;4.40;99.90;;;;;;4957865;28;20462;-68
2023/12/14 03:31:59;;;;;;;9.03;4.23;;;4.40;99.90;;;;;;4961531;28;20203;-68
2023/12/14 03:34:26;;;;;;;7.07;3.90;;;4.50;99.90;;;;;;4917498;28;20442;-68
2023/12/14 03:36:53;;;;;;;7.77;3.83;;;4.40;99.90;;;;;;4963491;28;20730;-68
2023/12/14 03:39:20;;;;;;;6.13;3.97;;;4.40;99.90;;;;;;4958102;28;20205;-67
2023/12/14 03:41:47;;;;;;;8.53;4.50;;;4.40;99.90;;;;;;4952313;28;20214;-68
2023/12/14 03:44:14;;;;;;;5.97;4.00;;;4.40;99.90;;;;;;4959970;28;20210;-68
2023/12/14 03:46:40;;;;;;;6.07;3.80;;;4.40;99.90;;;;;;4963235;28;20199;-68
2023/12/14 03:49:09;;;;;;;6.73;4.00;;;4.40;99.90;;;;;;4942433;28;20200;-68
2023/12/14 03:51:36;;;;;;;4.70;3.30;;;4.60;99.90;;;;;;4944560;28;20815;-68
2023/12/14 03:54:02;;;;;;;7.87;4.20;;;4.30;99.90;;;;;;4961361;28;20202;-67
2023/12/14 03:56:29;;;;;;;5.70;3.73;;;4.40;99.90;;;;;;4948789;28;20533;-68
2023/12/14 03:58:57;;;;;;;6.37;3.80;;;4.40;99.90;;;;;;4961487;28;20200;-68
2023/12/14 04:01:24;;;;;;;7.97;4.07;;;4.70;99.90;;;;;;4954134;28;20268;-67
2023/12/14 04:03:50;;;;;;;13.40;4.67;;;4.40;99.90;;;;;;4959959;28;20358;-67
2023/12/14 04:06:19;;;;;;;8.53;4.17;;;4.40;99.90;;;;;;4920273;28;20219;-68
2023/12/14 04:08:46;;;;;;;6.77;4.43;;;4.40;99.90;;;;;;4958401;28;20453;-68
2023/12/14 04:11:13;;;;;;;6.50;4.30;;;4.40;99.90;;;;;;4951321;28;20210;-68
2023/12/14 04:13:40;;;;;;;6.10;4.27;;;4.40;99.90;;;;;;4952330;28;20666;-67
2023/12/14 04:16:07;;;;;;;5.30;4.07;;;4.40;99.90;;;;;;4957516;28;20901;-68
2023/12/14 04:18:34;;;;;;;8.90;4.73;;;4.50;99.90;;;;;;4956245;28;20723;-67
2023/12/14 04:21:01;;;;;;;8.70;4.40;;;4.50;99.90;;;;;;4924058;28;20220;-68
2023/12/14 04:23:29;;;;;;;13.63;4.43;;;4.40;99.90;;;;;;4949311;28;20358;-68
2023/12/14 04:25:56;;;;;;;12.47;5.17;;;4.40;99.90;;;;;;4943178;28;20506;-67
2023/12/14 04:28:23;;;;;;;7.57;4.37;;;5.10;99.90;;;;;;4940197;28;20310;-68
2023/12/14 04:30:50;;;;;;;8.37;4.47;;;4.40;99.90;;;;;;4952336;28;20195;-67
2023/12/14 04:33:17;;;;;;;7.47;4.47;;;4.40;99.90;;;;;;4945268;28;20204;-68
2023/12/14 04:35:44;;;;;;;12.30;4.97;;;4.50;99.90;;;;;;4957965;28;20230;-67
2023/12/14 04:38:10;;;;;;;9.17;4.87;;;4.50;99.90;;;;;;4904619;28;21088;-68
2023/12/14 04:40:39;;;;;;;9.23;4.50;;;4.40;99.90;;;;;;4954280;28;20222;-68
2023/12/14 04:43:06;;;;;;;8.53;4.90;;;4.50;99.90;;;;;;4934499;28;20208;-68
2023/12/14 04:45:33;;;;;;;6.47;4.73;;;4.50;99.90;;;;;;4948627;28;20207;-67
2023/12/14 04:47:59;;;;;;;6.97;5.30;;;4.50;99.90;;;;;;4942980;28;20746;-68
2023/12/14 04:50:26;;;;;;;10.20;5.50;;;4.50;99.90;;;;;;4940580;28;20756;-68
2023/12/14 04:52:53;;;;;;;10.13;5.07;;;4.50;99.90;;;;;;4912897;28;20411;-67
2023/12/14 04:55:20;;;;;;;9.13;4.70;;;4.00;99.90;;;;;;4944385;28;20206;-68
2023/12/14 04:57:49;;;;;;;10.27;4.70;;;4.70;99.90;;;;;;4924087;28;20605;-67
2023/12/14 05:00:17;;;;;;;11.50;5.07;;;4.50;99.90;;;;;;4946934;28;20228;-67
2023/12/14 05:02:48;;;;;;;9.00;5.27;;;4.60;99.90;;;;;;4928182;28;20223;-67
2023/12/14 05:05:15;;;;;;;15.83;5.60;;;4.60;99.90;;;;;;4948766;28;20572;-68
2023/12/14 05:07:42;;;;;;;12.03;5.83;;;4.50;99.90;;;;;;4920876;28;21080;-68
2023/12/14 05:10:10;;;;;;;9.13;5.63;;;4.50;99.90;;;;;;4944400;28;20704;-68
2023/12/14 05:12:37;;;;;;;12.57;5.87;;;4.60;99.90;;;;;;4948452;28;20299;-67
2023/12/14 05:15:07;;;;;;;12.00;5.83;;;4.50;99.90;;;;;;4943000;28;20207;-67
2023/12/14 05:17:34;;;;;;;10.57;6.10;;;4.40;99.90;;;;;;4938381;28;20232;-68
2023/12/14 05:20:02;;;;;;;12.77;6.23;;;4.50;99.90;;;;;;4950065;28;20235;-68
2023/12/14 05:22:29;;;;;;;14.13;5.73;;;4.50;99.90;;;;;;4950994;28;20278;-68
2023/12/14 05:24:56;;;;;;;15.20;6.77;;;4.50;99.90;;;;;;4895780;28;20326;-68
2023/12/14 05:27:22;;;;;;;13.87;5.73;;;4.60;99.90;;;;;;4943147;28;21210;-67
2023/12/14 05:29:49;;;;;;;11.30;6.17;;;4.50;99.90;;;;;;4937415;28;20710;-68
2023/12/14 05:32:18;;;;;;;13.10;6.23;;;4.50;99.90;;;;;;4944626;28;20216;-68
2023/12/14 05:34:45;;;;;;;10.30;5.63;;;4.50;99.90;;;;;;4938042;28;20822;-67
2023/12/14 05:37:12;;;;;;;8.50;5.73;;;;;;;;;;4937753;28;20448;-68
2023/12/14 05:39:43;;;;;;;10.13;6.40;;;4.50;99.90;;;;;;4924158;28;20216;-68
2023/12/14 05:42:09;;;;;;;14.23;6.20;;;4.50;99.90;;;;;;4947942;28;20488;-68
2023/12/14 05:44:36;;;;;;;11.97;6.37;;;4.40;99.90;;;;;;4945092;28;20693;-68
2023/12/14 05:47:04;;;;;;;10.10;6.27;;;;;;;;;;4943874;28;21428;-67
2023/12/14 05:49:32;;;;;;;9.90;5.60;;;3.70;99.90;;;;;;4942145;28;20200;-68
2023/12/14 05:52:00;;;;;;;14.57;6.83;;;4.40;99.90;;;;;;4945615;28;20235;-68
2023/12/14 05:54:27;;;;;;;14.47;5.90;;;4.40;99.90;;;;;;4948681;28;21096;-67
2023/12/14 05:56:54;;;;;;;12.10;7.50;;;4.40;99.90;;;;;;4902942;28;20226;-68
2023/12/14 05:59:21;;;;;;;13.80;6.90;;;4.40;99.90;;;;;;4937310;28;20207;-68
2023/12/14 06:01:48;;;;;;;12.77;6.33;;;4.40;99.90;;;;;;4920556;28;20208;-67
2023/12/14 06:04:14;;;;;;;11.13;6.07;;;4.40;99.90;;;;;;4929890;28;20239;-68
2023/12/14 06:06:43;;;;;;;13.90;6.80;;;4.30;99.90;;;;;;4955846;28;20310;-68
2023/12/14 06:09:10;;;;;;;12.83;6.77;;;5.50;99.90;;;;;;4950385;28;20230;-68
2023/12/14 06:11:37;;;;;;;12.53;7.00;;;4.40;99.90;;;;;;4915703;28;20231;-67
2023/12/14 06:14:04;;;;;;;15.40;5.87;;;4.40;99.90;;;;;;4944153;28;20589;-67
2023/12/14 06:16:31;;;;;;;9.63;5.97;;;4.40;99.90;;;;;;4941043;28;20225;-68
2023/12/14 06:18:58;;;;;;;13.53;6.63;;;4.40;99.90;;;;;;4942818;28;20498;-68
2023/12/14 06:21:28;;;;;;;13.83;6.67;;;4.40;99.90;;;;;;4961852;28;20378;-68
2023/12/14 06:23:56;;;;;;;14.10;6.43;;;4.40;99.90;;;;;;4934590;28;20295;-68
2023/12/14 06:26:23;;;;;;;10.33;6.43;;;4.40;99.90;;;;;;4951115;28;20607;-68
2023/12/14 06:28:50;;;;;;;10.70;6.67;;;4.40;99.90;;;;;;4920155;28;20207;-68
2023/12/14 06:31:21;;;;;;;16.43;6.40;;;4.40;99.90;;;;;;4955887;28;20211;-67
2023/12/14 06:33:48;;;;;;;11.47;6.63;;;4.40;99.90;;;;;;4944236;28;20196;-67
2023/12/14 06:36:18;;;;;;;14.97;7.70;;;4.40;99.90;;;;;;4947832;28;20565;-68
2023/12/14 06:38:45;;;;;;;13.30;7.37;;;4.30;99.90;;;;;;4953700;28;20234;-67
2023/12/14 06:41:23;;;;;;;12.30;6.90;;;4.30;99.90;;;;;;4957133;28;20204;-68
2023/12/14 06:43:50;;;;;;;12.60;7.43;;;4.30;99.90;;;;;;4918724;28;20199;-67
2023/12/14 06:46:17;;;;;;;12.30;6.50;;;4.40;99.90;;;;;;4956135;28;20581;-68
2023/12/14 06:48:46;;;;;;;11.63;6.93;;;4.30;99.90;;;;;;4931821;28;20210;-68
2023/12/14 06:51:13;;;;;;;13.17;6.67;;;4.40;99.90;;;;;;4940807;28;20402;-68
2023/12/14 06:53:42;;;;;;;12.20;6.70;;;4.30;99.90;;;;;;4956674;28;20295;-68
2023/12/14 06:56:10;;;;;;;11.10;7.10;;;4.30;99.90;;;;;;4950279;28;20241;-68
2023/12/14 06:58:40;;;;;;;15.77;6.93;;;4.30;99.90;;;;;;4918726;28;20663;-68
2023/12/14 07:01:07;;;;;;;18.00;6.93;;;4.30;99.90;;;;;;4943047;28;20397;-68
2023/12/14 07:03:34;;;;;;;13.13;6.93;;;5.30;99.90;;;;;;4948575;28;20204;-68
2023/12/14 07:06:01;;;;;;;13.60;7.07;;;4.30;99.90;;;;;;4912548;28;20241;-67
2023/12/14 07:08:28;;;;;;;16.37;7.30;;;5.30;99.90;;;;;;4948277;28;20683;-67
2023/12/14 07:10:55;;;;;;;17.27;7.33;;;4.30;99.90;;;;;;4924036;28;20685;-68
2023/12/14 07:13:21;;;;;;;12.67;6.53;;;4.30;99.90;;;;;;4957864;28;20285;-68
2023/12/14 07:15:50;;;;;;;16.53;6.50;;;4.30;99.90;;;;;;4916068;28;20224;-66
2023/12/14 07:18:17;;;;;;;13.40;7.30;;;4.30;99.90;;;;;;4950279;28;20228;-67
2023/12/14 07:20:43;;;;;;;12.50;6.93;;;4.60;99.90;;;;;;4911034;28;24161;-68
2023/12/14 07:23:10;;;;;;;14.50;6.60;;;4.40;99.90;;;;;;4950919;28;20209;-68
2023/12/14 07:25:37;;;;;;;16.30;6.67;;;4.20;99.90;;;;;;4933878;28;20216;-68
2023/12/14 07:28:04;;;;;;;17.50;6.70;;;4.30;99.90;;;;;;4925645;28;20224;-68
2023/12/14 07:30:31;;;;;;;9.73;6.30;;;4.30;99.90;;;;;;4914995;28;20215;-68
2023/12/14 07:33:00;;;;;;;11.97;6.67;;;4.30;99.90;;;;;;4953379;28;20403;-67
2023/12/14 07:35:26;;;;;;;10.27;6.13;;;4.30;99.90;;;;;;4937180;28;20204;-68
2023/12/14 07:37:53;;;;;;;13.10;6.13;;;4.30;99.90;;;;;;4933274;28;20563;-67
2023/12/14 07:40:20;;;;;;;14.73;6.57;;;4.30;99.90;;;;;;4937620;28;20389;-67
2023/12/14 07:42:47;;;;;;;11.60;6.33;;;4.30;99.90;;;;;;4950185;28;20201;-67
2023/12/14 07:45:15;;;;;;;8.63;6.17;;;4.30;99.90;;;;;;4920886;28;20329;-67
2023/12/14 07:47:43;;;;;;;12.87;6.20;;;4.30;99.90;;;;;;4926619;28;20573;-68
2023/12/14 07:50:11;;;;;;;12.43;6.97;;;4.30;99.90;;;;;;4953786;28;20238;-68
2023/12/14 07:52:38;;;;;;;12.80;6.20;;;4.30;99.90;;;;;;4903981;28;21216;-68
2023/12/14 07:55:06;;;;;;;11.57;6.80;;;4.30;99.90;;;;;;4939538;28;20808;-67
2023/12/14 07:57:33;;;;;;;11.17;6.47;;;4.40;99.90;;;;;;4919474;28;20548;-68
2023/12/14 08:00:00;;;;;;;11.10;6.03;;;4.30;99.90;;;;;;4925064;28;20226;-67
2023/12/14 08:02:27;;;;;;;12.97;6.63;;;4.40;99.90;;;;;;4911600;28;21209;-68
2023/12/14 08:04:54;;;;;;;12.63;6.83;;;4.30;99.90;;;;;;4949085;28;20212;-67
2023/12/14 08:07:22;;;;;;;15.80;7.40;;;4.30;99.90;;;;;;4937033;28;20506;-68
2023/12/14 08:09:49;;;;;;;10.83;6.20;;;4.30;99.90;;;;;;4924650;28;20203;-67
2023/12/14 08:12:16;;;;;;;10.90;5.37;;;;;;;;;;4952318;28;20385;-68
2023/12/14 08:14:43;;;;;;;14.47;7.30;;;4.30;99.90;;;;;;4941861;28;20195;-68
2023/12/14 08:17:10;;;;;;;13.07;6.07;;;4.30;99.90;;;;;;4922653;28;20631;-68
2023/12/14 08:19:37;;;;;;;9.30;5.87;;;4.30;99.90;;;;;;4956801;28;20418;-68
2023/12/14 08:22:04;;;;;;;9.63;5.47;;;4.40;99.90;;;;;;4921298;28;20571;-68
2023/12/14 08:24:33;;;;;;;11.57;5.80;;;4.30;99.90;;;;;;4924930;28;20196;-68
2023/12/14 08:27:00;;;;;;;10.13;5.60;;;4.40;99.90;;;;;;4943649;28;20208;-68
2023/12/14 08:29:26;;;;;;;11.70;5.13;;;4.40;99.90;;;;;;4929005;28;20509;-67
2023/12/14 08:31:56;;;;;;;9.23;6.10;;;4.40;99.90;;;;;;4918474;28;20223;-67
2023/12/14 08:34:23;;;;;;;13.53;6.57;;;4.40;99.90;;;;;;4950384;28;20718;-67
2023/12/14 08:36:50;;;;;;;10.70;5.77;;;4.60;99.90;;;;;;4939622;28;20358;-67
2023/12/14 08:39:17;;;;;;;12.80;5.47;;;;;;;;;;4953089;28;20231;-66
2023/12/14 08:41:47;;;;;;;11.97;6.03;;;4.30;99.90;;;;;;4917441;28;21371;-67
2023/12/14 08:44:13;;;;;;;10.00;6.00;;;4.40;99.90;;;;;;4946918;28;20517;-67
2023/12/14 08:46:41;;;;;;;11.33;5.40;;;4.50;99.90;;;;;;4949076;28;20867;-67
2023/12/14 08:49:08;;;;;;;12.23;5.77;;;4.70;99.90;;;;;;4923468;28;20217;-67
2023/12/14 08:51:35;;;;;;;11.00;5.53;;;4.50;99.90;;;;;;4952091;28;20253;-66
2023/12/14 08:54:02;;;;;;;10.33;5.50;;;4.70;99.90;;;;;;4944375;28;20969;-67
2023/12/14 08:56:29;;;;;;;10.80;5.93;;;;;;;;;;4932100;28;20227;-67
2023/12/14 08:58:59;;;;;;;8.90;5.47;;;4.40;99.90;;;;;;4948904;28;20322;-67
2023/12/14 09:01:26;;;;;;;10.93;5.70;;;3.20;99.90;;;;;;4947875;28;20560;-66
2023/12/14 09:03:53;;;;;;;9.80;5.17;;;4.50;99.90;;;;;;4909968;28;20785;-67
2023/12/14 09:06:20;;;;;;;12.67;6.03;;;4.60;99.90;;;;;;4956829;28;20771;-67
2023/12/14 09:08:47;;;;;;;11.50;5.07;;;3.60;99.90;;;;;;4937674;28;20223;-66
2023/12/14 09:11:15;;;;;;;16.20;6.17;;;4.80;99.90;;;;;;4942720;28;20846;-66
2023/12/14 09:13:42;;;;;;;10.77;6.37;;;5.10;99.90;;;;;;4940367;28;21650;-67
2023/12/14 09:16:10;;;;;;;11.90;5.43;;;4.70;99.90;;;;;;4945907;28;20207;-67
2023/12/14 09:18:37;;;;;;;9.57;5.60;;;4.60;99.90;;;;;;4913975;28;20235;-67
2023/12/14 09:21:05;;;;;;;12.67;5.50;;;4.60;99.90;;;;;;4959129;28;20195;-67
2023/12/14 09:23:31;;;;;;;9.27;5.20;;;4.60;99.90;;;;;;4936851;28;20294;-67
2023/12/14 09:25:59;;;;;;;17.17;6.03;;;4.70;99.90;;;;;;4955486;28;20216;-67
2023/12/14 09:28:26;;;;;;;10.50;6.17;;;4.60;99.90;;;;;;4940982;28;20329;-67
2023/12/14 09:30:53;;;;;;;11.77;5.33;;;4.60;99.90;;;;;;4939305;28;20513;-67
2023/12/14 09:33:21;;;;;;;8.67;4.93;;;4.40;99.90;;;;;;4951482;28;20605;-67
2023/12/14 09:35:48;;;;;;;10.50;5.13;;;4.70;99.90;;;;;;4929116;28;20207;-67
2023/12/14 09:38:17;;;;;;;13.50;5.43;;;4.90;99.90;;;;;;4936014;28;20513;-67
2023/12/14 09:40:45;;;;;;;12.47;5.47;;;4.90;99.90;;;;;;4954717;28;20227;-67
2023/12/14 09:43:13;;;;;;;9.20;5.23;;;4.80;99.90;;;;;;4936022;28;20215;-68
2023/12/14 09:45:44;;;;;;;8.10;5.33;;;4.90;99.90;;;;;;4926461;28;21159;-68
2023/12/14 09:48:12;;;;;;;7.40;5.07;;;4.90;99.90;;;;;;4945366;28;20212;-68
2023/12/14 09:50:42;;;;;;;11.70;5.60;;;4.90;99.90;;;;;;4915458;28;20235;-68
2023/12/14 09:53:09;;;;;;;11.43;5.00;;;4.80;99.90;;;;;;4953217;28;20812;-68
2023/12/14 09:55:36;;;;;;;6.47;4.90;;;4.80;99.90;;;;;;4942266;28;20462;-68
2023/12/14 09:58:03;;;;;;;11.53;5.63;;;4.80;99.90;;;;;;4938899;28;20224;-68
2023/12/14 10:00:38;;;;;;;13.90;6.07;;;4.80;99.90;;;;;;4918816;28;20783;-68
2023/12/14 10:03:20;;;;;;;10.30;5.50;;;3.80;99.90;;;;;;4931300;28;20207;-68
2023/12/14 10:05:48;;;;;;;10.37;5.40;;;4.70;99.90;;;;;;4912675;28;20586;-68
2023/12/14 10:08:16;;;;;;;6.63;4.83;;;4.80;99.90;;;;;;4934497;28;20204;-68
2023/12/14 10:10:43;;;;;;;10.70;5.40;;;4.80;99.90;;;;;;4944414;28;22439;-68
2023/12/14 10:13:10;;;;;;;14.27;5.67;;;4.80;99.90;;;;;;4942311;28;20215;-68
2023/12/14 10:15:44;;;;;;;15.87;5.93;;;4.80;99.90;;;;;;4955863;28;20427;-68
2023/12/14 10:18:11;;;;;;;10.97;6.17;;;5.70;99.90;;;;;;4939776;28;20331;-68
2023/12/14 10:20:38;;;;;;;16.60;7.23;;;4.80;99.90;;;;;;4902879;28;20683;-67
2023/12/14 10:23:08;;;;;;;15.70;7.07;;;4.80;99.90;;;;;;4934930;28;20231;-67
2023/12/14 10:25:36;;;;;;;25.67;10.20;;;4.60;99.90;;;;;;4939669;28;20295;-67
2023/12/14 10:28:03;;;;;;;14.53;7.63;;;4.90;99.90;;;;;;4945764;28;20223;-67
2023/12/14 10:30:31;;;;;;;12.63;6.50;;;4.90;99.90;;;;;;4936394;28;20214;-67
2023/12/14 10:32:58;;;;;;;17.07;8.60;;;4.90;99.90;;;;;;4930293;28;20227;-67
2023/12/14 10:35:25;;;;;;;11.60;6.10;;;4.80;99.90;;;;;;4932061;28;20277;-67
2023/12/14 10:37:56;;;;;;;10.33;6.37;;;5.10;99.90;;;;;;4902020;28;20326;-67
2023/12/14 10:40:26;;;;;;;10.67;6.40;;;4.10;99.90;;;;;;4943163;28;20638;-67
2023/12/14 10:42:55;;;;;;;16.80;7.90;;;5.00;99.90;;;;;;4949385;28;20705;-67
2023/12/14 10:45:25;;;;;;;14.10;5.83;;;5.60;99.90;;;;;;4944577;28;20209;-67
2023/12/14 10:47:53;;;;;;;12.47;5.73;;;5.00;99.90;;;;;;4939018;28;20822;-67
2023/12/14 10:50:20;;;;;;;9.87;6.13;;;5.00;99.90;;;;;;4944397;28;20227;-67
2023/12/14 10:52:48;;;;;;;12.33;6.30;;;5.00;99.90;;;;;;4899681;28;20218;-67
2023/12/14 10:55:23;;;;;;;14.80;5.67;;;3.90;99.90;;;;;;4947302;28;20196;-67
2023/12/14 10:57:54;;;;;;;7.87;4.60;;;4.90;99.90;;;;;;4944295;28;20332;-67
2023/12/14 11:00:21;;;;;;;9.27;6.00;;;5.50;99.90;;;;;;4942884;28;20229;-67
2023/12/14 11:02:48;;;;;;;9.27;5.77;;;4.90;99.90;;;;;;4952240;28;20837;-67
2023/12/14 11:05:19;;;;;;;11.43;5.60;;;4.90;99.90;;;;;;4943283;28;20274;-67
2023/12/14 11:07:47;;;;;;;13.23;5.83;;;5.00;99.90;;;;;;4899793;28;20320;-67
2023/12/14 11:10:15;;;;;;;11.13;5.10;;;4.90;99.90;;;;;;4953703;28;20202;-67
2023/12/14 11:12:52;;;;;;;10.17;6.97;;;5.00;99.90;;;;;;4939007;28;21011;-67
2023/12/14 11:15:20;;;;;;;13.17;5.90;;;5.10;99.90;;;;;;4940861;28;20217;-67
2023/12/14 11:18:21;;;;;;;13.23;6.13;;;5.00;99.90;;;;;;4941532;28;20761;-67
2023/12/14 11:20:50;;;;;;;11.70;6.47;;;5.00;99.90;;;;;;4937034;28;20408;-67
2023/12/14 11:23:19;;;;;;;12.37;5.57;;;5.00;99.90;;;;;;4903708;28;20732;-67
2023/12/14 11:25:49;;;;;;;13.63;5.47;;;5.00;99.90;;;;;;4940154;28;20218;-67
2023/12/14 11:28:16;;;;;;;9.93;5.90;;;5.00;99.90;;;;;;4944584;28;20545;-67
2023/12/14 11:30:46;;;;;;;11.40;5.57;;;5.20;99.90;;;;;;4927014;28;20218;-67
2023/12/14 11:33:13;;;;;;;8.73;5.77;;;5.10;99.90;;;;;;4955006;28;20202;-67
2023/12/14 11:35:40;;;;;;;13.07;5.70;;;5.00;99.90;;;;;;4938943;28;20285;-67
2023/12/14 11:38:12;;;;;;;12.07;6.07;;;5.10;99.90;;;;;;4901725;28;20207;-67
2023/12/14 11:40:38;;;;;;;12.70;5.83;;;5.00;99.90;;;;;;4930841;28;20227;-67
2023/12/14 11:43:07;;;;;;;9.77;6.20;;;5.00;99.90;;;;;;4941015;28;20208;-68
2023/12/14 11:45:35;;;;;;;8.77;5.77;;;5.00;99.90;;;;;;4948928;28;20739;-67
2023/12/14 11:48:05;;;;;;;6.73;4.87;;;5.10;99.90;;;;;;4952602;28;20954;-67
2023/12/14 11:50:34;;;;;;;8.87;5.67;;;5.10;99.90;;;;;;4957984;28;20223;-67
2023/12/14 11:53:03;;;;;;;9.10;5.60;;;5.00;99.90;;;;;;4930580;28;20214;-67
2023/12/14 11:55:30;;;;;;;11.83;5.60;;;5.10;99.90;;;;;;4951070;28;20223;-67
2023/12/14 11:57:58;;;;;;;12.77;6.37;;;5.20;99.90;;;;;;4931803;28;21113;-68
2023/12/14 12:00:26;;;;;;;9.27;6.60;;;5.20;99.90;;;;;;4956151;28;20268;-67
2023/12/14 12:02:53;;;;;;;8.80;5.87;;;5.20;99.90;;;;;;4943896;28;20303;-67
2023/12/14 12:05:36;;;;;;;8.47;5.50;;;5.10;99.90;;;;;;4957999;28;20200;-67
2023/12/14 12:08:03;;;;;;;13.23;6.23;;;5.10;99.90;;;;;;4948002;28;20227;-68
2023/12/14 12:10:30;;;;;;;10.50;6.13;;;5.10;99.90;;;;;;4899670;28;20219;-68
2023/12/14 12:13:01;;;;;;;13.47;6.60;;;5.20;99.90;;;;;;4956618;28;20223;-68
2023/12/14 12:15:28;;;;;;;10.83;6.80;;;5.20;99.90;;;;;;4936933;28;20253;-67
2023/12/14 12:17:55;;;;;;;8.50;5.60;;;5.10;99.90;;;;;;4946753;28;20204;-68
2023/12/14 12:20:23;;;;;;;15.47;6.77;;;5.20;99.90;;;;;;4938851;28;20224;-67
2023/12/14 12:22:50;;;;;;;11.80;6.20;;;5.20;99.90;;;;;;4942581;28;20203;-67
2023/12/14 12:25:18;;;;;;;11.77;6.37;;;5.20;99.90;;;;;;4906090;28;20722;-67
2023/12/14 12:27:44;;;;;;;8.47;5.70;;;5.20;99.90;;;;;;4954975;28;20361;-67
2023/12/14 12:30:12;;;;;;;10.10;6.43;;;5.10;99.90;;;;;;4940491;28;20203;-67
2023/12/14 12:32:39;;;;;;;10.17;5.97;;;5.10;99.90;;;;;;4935202;28;20215;-67
2023/12/14 12:35:07;;;;;;;13.00;6.37;;;5.20;99.90;;;;;;4959659;28;20623;-67
2023/12/14 12:37:36;;;;;;;11.43;5.93;;;5.20;99.90;;;;;;4949340;28;20282;-67
2023/12/14 12:40:04;;;;;;;8.33;5.23;;;5.10;99.90;;;;;;4914081;28;20223;-68
2023/12/14 12:42:31;;;;;;;11.20;6.17;;;5.20;99.90;;;;;;4956826;28;20204;-68
2023/12/14 12:44:57;;;;;;;11.17;6.17;;;5.10;99.90;;;;;;4945959;28;20321;-67
2023/12/14 12:47:24;;;;;;;7.43;5.10;;;5.20;99.90;;;;;;4938665;28;20202;-67
2023/12/14 12:49:51;;;;;;;13.07;5.70;;;5.10;99.90;;;;;;4956202;28;20960;-67
2023/12/14 12:52:18;;;;;;;10.93;5.90;;;5.20;99.90;;;;;;4945584;28;20227;-67
2023/12/14 12:54:46;;;;;;;8.00;5.63;;;5.10;99.90;;;;;;4920646;28;20219;-68